createdAt,value
2022-10-22T00:01:13.875Z,5.70
2022-10-22T00:03:42.124Z,5.37
2022-10-22T00:06:10.320Z,6.57
2022-10-22T00:08:38.639Z,6.40
2022-10-22T00:11:11.897Z,8.80
2022-10-22T00:13:41.720Z,13.20
2022-10-22T00:16:10.772Z,7.27
2022-10-22T00:18:39.760Z,20.23
2022-10-22T00:21:08.996Z,10.03
2022-10-22T00:23:37.035Z,9.43
2022-10-22T00:26:05.372Z,8.43
2022-10-22T00:28:33.394Z,5.23
2022-10-22T00:31:03.426Z,9.97
2022-10-22T00:33:31.758Z,6.67
2022-10-22T00:36:00.557Z,6.93
2022-10-22T00:38:31.044Z,8.43
2022-10-22T00:43:33.275Z,5.27
2022-10-22T00:46:03.664Z,6.13
2022-10-22T00:48:34.648Z,5.27
2022-10-22T00:51:05.838Z,8.57
2022-10-22T00:53:39.005Z,9.37
2022-10-22T00:56:08.100Z,5.73
2022-10-22T00:58:38.591Z,10.07
2022-10-22T01:01:16.427Z,5.90
2022-10-22T01:03:44.550Z,4.97
2022-10-22T01:06:18.305Z,3.00
2022-10-22T01:08:53.285Z,2.40
2022-10-22T01:11:24.954Z,21.23
2022-10-22T01:14:01.697Z,5.87
2022-10-22T01:16:36.066Z,5.67
2022-10-22T01:19:20.158Z,6.33
2022-10-22T01:21:53.243Z,6.17
2022-10-22T01:24:36.197Z,2.47
2022-10-22T01:27:13.904Z,4.50
2022-10-22T01:29:46.174Z,7.70
2022-10-22T01:32:17.981Z,8.43
2022-10-22T01:34:50.203Z,5.40
2022-10-22T01:37:19.367Z,6.77
2022-10-22T01:39:48.367Z,3.87
2022-10-22T01:42:16.542Z,5.67
2022-10-22T01:44:48.997Z,3.13
2022-10-22T01:47:22.300Z,5.90
2022-10-22T01:50:12.403Z,6.03
2022-10-22T01:52:59.303Z,4.13
2022-10-22T01:55:30.974Z,8.03
2022-10-22T01:58:08.373Z,10.10
2022-10-22T02:00:41.463Z,7.33
2022-10-22T02:03:18.591Z,7.07
2022-10-22T02:05:51.595Z,6.60
2022-10-22T02:08:23.039Z,6.53
2022-10-22T02:10:53.292Z,3.90
2022-10-22T02:13:26.495Z,7.07
2022-10-22T02:15:58.079Z,3.80
2022-10-22T02:18:30.178Z,8.50
2022-10-22T02:20:58.901Z,8.60
2022-10-22T02:23:27.932Z,5.87
2022-10-22T02:26:02.918Z,5.63
2022-10-22T02:28:34.783Z,3.80
2022-10-22T02:31:13.785Z,2.60
2022-10-22T02:33:44.719Z,8.87
2022-10-22T02:36:13.234Z,4.53
2022-10-22T02:38:46.181Z,4.10
2022-10-22T02:41:15.801Z,5.00
2022-10-22T02:43:45.935Z,4.93
2022-10-22T02:46:15.568Z,6.07
2022-10-22T02:48:43.730Z,4.50
2022-10-22T02:51:12.990Z,4.97
2022-10-22T02:53:41.298Z,7.60
2022-10-22T02:56:09.945Z,4.57
2022-10-22T02:58:38.676Z,3.00
2022-10-22T03:01:08.149Z,4.93
2022-10-22T03:03:38.657Z,3.73
2022-10-22T03:06:07.272Z,4.40
2022-10-22T03:08:36.300Z,4.60
2022-10-22T03:11:04.441Z,3.50
2022-10-22T03:13:32.584Z,2.53
2022-10-22T03:16:00.764Z,3.17
2022-10-22T03:18:29.296Z,4.23
2022-10-22T03:21:09.770Z,3.30
2022-10-22T03:23:39.030Z,4.53
2022-10-22T03:26:07.633Z,3.07
2022-10-22T03:28:35.956Z,4.60
2022-10-22T03:31:04.258Z,13.13
2022-10-22T03:33:32.343Z,2.43
2022-10-22T03:36:00.649Z,5.40
2022-10-22T03:38:30.447Z,1.67
2022-10-22T03:40:58.942Z,1.47
2022-10-22T03:43:27.231Z,2.23
2022-10-22T03:45:55.677Z,4.67
2022-10-22T03:48:23.998Z,3.57
2022-10-22T03:50:52.185Z,3.10
2022-10-22T03:53:20.650Z,5.20
2022-10-22T03:55:50.264Z,3.87
2022-10-22T03:58:18.728Z,2.77
2022-10-22T04:00:46.914Z,10.63
2022-10-22T04:03:15.215Z,4.10
2022-10-22T04:05:43.342Z,3.20
2022-10-22T04:08:11.737Z,4.20
2022-10-22T04:10:41.576Z,5.37
2022-10-22T04:13:11.441Z,3.13
2022-10-22T04:15:40.469Z,4.40
2022-10-22T04:18:08.980Z,2.90
2022-10-22T04:20:38.972Z,4.83
2022-10-22T04:23:08.174Z,2.00
2022-10-22T04:25:36.583Z,2.90
2022-10-22T04:28:04.951Z,3.83
2022-10-22T04:30:36.307Z,1.90
2022-10-22T04:33:05.273Z,3.10
2022-10-22T04:35:33.478Z,1.90
2022-10-22T04:38:01.665Z,3.93
2022-10-22T04:40:30.412Z,2.10
2022-10-22T04:42:58.878Z,3.50
2022-10-22T04:45:27.158Z,4.03
2022-10-22T04:47:57.071Z,1.97
2022-10-22T04:50:25.467Z,4.73
2022-10-22T04:52:54.078Z,1.00
2022-10-22T04:55:22.378Z,5.53
2022-10-22T04:57:50.550Z,2.67
2022-10-22T05:00:22.583Z,7.90
2022-10-22T05:02:51.644Z,3.33
2022-10-22T05:05:21.694Z,2.00
2022-10-22T05:07:51.248Z,2.73
2022-10-22T05:10:19.555Z,4.20
2022-10-22T05:12:47.919Z,2.07
2022-10-22T05:15:16.194Z,2.20
2022-10-22T05:17:44.344Z,2.73
2022-10-22T05:20:12.873Z,0.70
2022-10-22T05:22:42.431Z,1.07
2022-10-22T05:25:12.805Z,2.80
2022-10-22T05:27:41.331Z,1.27
2022-10-22T05:30:10.258Z,4.40
2022-10-22T05:32:38.969Z,3.10
2022-10-22T05:35:07.841Z,1.10
2022-10-22T05:37:36.698Z,6.10
2022-10-22T05:40:19.304Z,1.87
2022-10-22T05:42:50.124Z,1.47
2022-10-22T05:45:18.294Z,3.23
2022-10-22T05:47:46.291Z,3.20
2022-10-22T05:50:14.699Z,1.53
2022-10-22T05:52:43.145Z,1.73
2022-10-22T05:55:13.481Z,1.10
2022-10-22T05:57:41.714Z,2.30
2022-10-22T06:00:14.161Z,6.77
2022-10-22T06:02:44.785Z,2.60
2022-10-22T06:05:12.851Z,6.23
2022-10-22T06:07:41.259Z,8.40
2022-10-22T06:10:14.616Z,2.03
2022-10-22T06:12:42.908Z,2.20
2022-10-22T06:15:12.635Z,3.23
2022-10-22T06:17:40.768Z,6.03
2022-10-22T06:20:11.020Z,5.73
2022-10-22T06:22:39.430Z,2.20
2022-10-22T06:25:08.436Z,1.63
2022-10-22T06:27:38.148Z,1.60
2022-10-22T06:30:07.397Z,3.47
2022-10-22T06:32:35.589Z,3.63
2022-10-22T06:35:03.835Z,5.17
2022-10-22T06:37:32.174Z,8.63
2022-10-22T06:40:00.333Z,4.20
2022-10-22T06:42:29.279Z,1.87
2022-10-22T06:44:58.873Z,2.53
2022-10-22T06:47:27.075Z,2.87
2022-10-22T06:49:55.129Z,5.53
2022-10-22T06:52:23.984Z,2.87
2022-10-22T06:54:52.259Z,2.30
2022-10-22T06:57:20.257Z,3.47
2022-10-22T06:59:48.541Z,2.83
2022-10-22T07:02:18.065Z,5.73
2022-10-22T07:04:46.323Z,6.80
2022-10-22T07:07:15.189Z,6.40
2022-10-22T07:09:45.669Z,5.33
2022-10-22T07:12:14.267Z,7.07
2022-10-22T07:14:42.493Z,5.70
2022-10-22T07:17:10.622Z,6.43
2022-10-22T07:19:40.450Z,6.13
2022-10-22T07:22:08.605Z,9.10
2022-10-22T07:24:36.895Z,10.83
2022-10-22T07:27:07.038Z,5.47
2022-10-22T07:29:37.646Z,4.10
2022-10-22T07:32:06.291Z,4.33
2022-10-22T07:34:34.374Z,3.93
2022-10-22T07:37:04.117Z,4.10
2022-10-22T07:39:33.134Z,4.57
2022-10-22T07:42:01.374Z,4.00
2022-10-22T07:44:29.662Z,6.53
2022-10-22T07:46:57.976Z,6.87
2022-10-22T07:49:26.027Z,4.53
2022-10-22T07:51:54.224Z,3.00
2022-10-22T07:54:23.966Z,3.80
2022-10-22T07:56:52.516Z,5.23
2022-10-22T07:59:20.813Z,3.77
2022-10-22T08:01:48.832Z,4.20
2022-10-22T08:04:16.930Z,7.13
2022-10-22T08:06:47.247Z,6.20
2022-10-22T08:09:16.564Z,4.97
2022-10-22T08:11:47.021Z,5.33
2022-10-22T08:14:15.139Z,6.40
2022-10-22T08:16:43.189Z,4.87
2022-10-22T08:19:11.260Z,5.03
2022-10-22T08:21:39.286Z,4.27
2022-10-22T08:26:41.473Z,2.37
2022-10-22T08:29:10.942Z,6.10
2022-10-22T08:31:39.323Z,5.30
2022-10-22T08:34:08.368Z,2.67
2022-10-22T08:36:36.787Z,2.53
2022-10-22T08:39:04.935Z,3.87
2022-10-22T08:41:38.114Z,4.20
2022-10-22T08:44:22.164Z,4.63
2022-10-22T08:47:20.059Z,2.53
2022-10-22T08:49:50.596Z,4.40
2022-10-22T08:52:20.059Z,3.03
2022-10-22T08:54:52.715Z,2.67
2022-10-22T09:00:03.687Z,6.53
2022-10-22T09:02:39.913Z,6.20
2022-10-22T09:05:19.404Z,4.47
2022-10-22T09:07:50.231Z,11.30
2022-10-22T09:10:20.151Z,4.97
2022-10-22T09:12:48.909Z,5.20
2022-10-22T09:15:19.616Z,5.73
2022-10-22T09:17:56.909Z,5.63
2022-10-22T09:20:29.917Z,8.03
2022-10-22T09:23:06.771Z,4.40
2022-10-22T09:25:37.968Z,4.20
2022-10-22T09:28:07.063Z,5.03
2022-10-22T09:30:39.067Z,7.30
2022-10-22T09:33:14.013Z,11.10
2022-10-22T09:35:48.469Z,9.80
2022-10-22T09:38:19.258Z,10.27
2022-10-22T09:40:50.055Z,3.47
2022-10-22T09:43:18.621Z,4.23
2022-10-22T09:45:49.618Z,4.40
2022-10-22T09:48:27.222Z,5.90
2022-10-22T09:50:59.350Z,3.47
2022-10-22T09:53:28.407Z,6.53
2022-10-22T09:55:58.733Z,7.90
2022-10-22T09:58:27.463Z,8.20
2022-10-22T10:00:58.441Z,3.30
2022-10-22T10:03:28.191Z,6.40
2022-10-22T10:06:04.718Z,4.83
2022-10-22T10:08:35.048Z,5.67
2022-10-22T10:11:07.891Z,3.77
2022-10-22T10:13:44.087Z,3.00
2022-10-22T10:16:30.486Z,5.00
2022-10-22T10:19:18.746Z,3.40
2022-10-22T10:21:52.972Z,3.70
2022-10-22T10:24:25.192Z,4.23
2022-10-22T10:26:56.338Z,7.87
2022-10-22T10:29:38.806Z,10.77
2022-10-22T10:32:23.594Z,6.40
2022-10-22T10:34:56.481Z,11.40
2022-10-22T10:37:27.010Z,6.33
2022-10-22T10:40:17.897Z,2.90
2022-10-22T10:42:53.284Z,9.33
2022-10-22T10:45:26.582Z,4.73
2022-10-22T10:48:11.606Z,4.20
2022-10-22T10:50:52.019Z,4.47
2022-10-22T10:53:25.749Z,4.10
2022-10-22T10:56:00.877Z,5.03
2022-10-22T10:58:35.915Z,9.03
2022-10-22T11:01:14.642Z,9.07
2022-10-22T11:03:56.711Z,3.73
2022-10-22T11:06:25.772Z,4.13
2022-10-22T11:08:59.480Z,3.20
2022-10-22T11:11:33.062Z,13.30
2022-10-22T11:14:05.498Z,7.20
2022-10-22T11:16:36.716Z,6.90
2022-10-22T11:19:10.074Z,5.00
2022-10-22T11:21:42.217Z,4.07
2022-10-22T11:24:17.857Z,3.03
2022-10-22T11:26:48.281Z,35.00
2022-10-22T11:29:20.813Z,9.00
2022-10-22T11:31:50.096Z,6.03
2022-10-22T11:34:33.169Z,10.80
2022-10-22T11:37:02.840Z,13.10
2022-10-22T11:39:34.760Z,5.77
2022-10-22T11:42:05.655Z,5.13
2022-10-22T11:44:47.396Z,5.90
2022-10-22T11:47:20.699Z,5.90
2022-10-22T11:50:00.842Z,10.33
2022-10-22T11:52:40.246Z,3.80
2022-10-22T11:55:33.726Z,2.80
2022-10-22T11:58:02.593Z,3.37
2022-10-22T12:00:42.747Z,2.27
2022-10-22T12:03:18.787Z,1.87
2022-10-22T12:05:48.436Z,3.67
2022-10-22T12:08:37.742Z,2.40
2022-10-22T12:11:24.209Z,2.37
2022-10-22T12:14:05.222Z,3.43
2022-10-22T12:16:55.158Z,2.70
2022-10-22T12:19:31.976Z,4.33
2022-10-22T12:22:10.318Z,6.67
2022-10-22T12:24:40.565Z,2.77
2022-10-22T12:27:22.234Z,7.33
2022-10-22T12:29:55.095Z,6.90
2022-10-22T12:32:23.304Z,5.23
2022-10-22T12:34:53.189Z,6.17
2022-10-22T12:37:22.929Z,6.67
2022-10-22T12:39:50.956Z,8.93
2022-10-22T12:42:19.405Z,2.63
2022-10-22T12:44:47.504Z,7.23
2022-10-22T12:47:17.534Z,3.73
2022-10-22T12:49:49.947Z,4.40
2022-10-22T12:52:21.013Z,2.20
2022-10-22T12:54:52.718Z,2.23
2022-10-22T12:57:21.690Z,5.17
2022-10-22T12:59:51.426Z,4.70
2022-10-22T13:02:23.917Z,6.23
2022-10-22T13:05:16.766Z,61.80
2022-10-22T13:07:48.313Z,143.73
2022-10-22T13:10:21.072Z,61.10
2022-10-22T13:12:53.416Z,5.00
2022-10-22T13:15:30.568Z,5.93
2022-10-22T13:18:03.667Z,2.70
2022-10-22T13:20:32.200Z,4.13
2022-10-22T13:23:03.355Z,1.60
2022-10-22T13:25:34.500Z,1.30
2022-10-22T13:28:05.456Z,3.10
2022-10-22T13:30:34.944Z,5.27
2022-10-22T13:33:04.508Z,3.90
2022-10-22T13:35:34.581Z,9.53
2022-10-22T13:38:03.283Z,1.50
2022-10-22T13:40:32.671Z,3.00
2022-10-22T13:43:00.867Z,2.97
2022-10-22T13:45:29.260Z,3.97
2022-10-22T13:47:57.335Z,2.43
2022-10-22T13:50:25.660Z,4.10
2022-10-22T13:52:55.418Z,1.70
2022-10-22T13:55:25.624Z,3.53
2022-10-22T13:57:56.704Z,3.10
2022-10-22T14:00:25.219Z,3.20
2022-10-22T14:02:56.033Z,2.60
2022-10-22T14:05:24.358Z,6.23
2022-10-22T14:07:52.970Z,2.50
2022-10-22T14:10:23.099Z,2.83
2022-10-22T14:12:53.375Z,4.47
2022-10-22T14:15:25.128Z,6.03
2022-10-22T14:17:55.736Z,1.97
2022-10-22T14:20:26.474Z,3.40
2022-10-22T14:22:55.179Z,1.70
2022-10-22T14:25:24.471Z,3.33
2022-10-22T14:27:52.531Z,4.50
2022-10-22T14:30:22.004Z,9.10
2022-10-22T14:32:51.924Z,2.97
2022-10-22T14:35:22.596Z,8.67
2022-10-22T14:37:50.984Z,10.70
2022-10-22T14:40:21.306Z,14.90
2022-10-22T14:42:50.116Z,12.27
2022-10-22T14:45:21.007Z,8.37
2022-10-22T14:47:49.063Z,5.67
2022-10-22T14:50:19.458Z,3.53
2022-10-22T14:52:47.662Z,3.30
2022-10-22T14:55:17.444Z,3.47
2022-10-22T14:57:45.946Z,2.83
2022-10-22T15:00:16.848Z,2.87
2022-10-22T15:02:45.103Z,3.17
2022-10-22T15:05:13.547Z,4.23
2022-10-22T15:07:43.651Z,2.63
2022-10-22T15:10:12.295Z,3.70
2022-10-22T15:12:40.426Z,7.97
2022-10-22T15:15:09.321Z,6.07
2022-10-22T15:17:37.423Z,2.97
2022-10-22T15:20:06.807Z,5.03
2022-10-22T15:22:36.151Z,2.20
2022-10-22T15:25:08.304Z,5.43
2022-10-22T15:27:36.677Z,6.40
2022-10-22T15:30:05.544Z,6.43
2022-10-22T15:32:34.239Z,5.43
2022-10-22T15:35:02.459Z,2.73
2022-10-22T15:37:31.868Z,15.40
2022-10-22T15:40:00.726Z,29.50
2022-10-22T15:42:30.193Z,23.03
2022-10-22T15:44:59.810Z,14.20
2022-10-22T15:47:29.643Z,16.13
2022-10-22T15:49:59.973Z,7.87
2022-10-22T15:52:28.024Z,9.07
2022-10-22T15:54:56.341Z,13.50
2022-10-22T15:57:24.416Z,97.27
2022-10-22T15:59:53.827Z,20.87
2022-10-22T16:02:21.921Z,46.37
2022-10-22T16:04:50.354Z,32.57
2022-10-22T16:07:21.070Z,64.33
2022-10-22T16:09:52.406Z,58.07
2022-10-22T16:12:20.856Z,123.10
2022-10-22T16:14:51.549Z,78.70
2022-10-22T16:17:21.121Z,54.43
2022-10-22T16:19:49.527Z,22.07
2022-10-22T16:22:17.874Z,30.20
2022-10-22T16:24:46.300Z,17.90
2022-10-22T16:27:14.405Z,10.13
2022-10-22T16:29:42.442Z,12.10
2022-10-22T16:32:10.428Z,23.10
2022-10-22T16:34:39.939Z,19.13
2022-10-22T16:37:10.229Z,6.63
2022-10-22T16:39:38.661Z,7.50
2022-10-22T16:42:06.867Z,7.10
2022-10-22T16:44:35.001Z,11.33
2022-10-22T16:47:03.129Z,9.23
2022-10-22T16:49:31.270Z,9.23
2022-10-22T16:52:01.343Z,4.70
2022-10-22T16:54:29.446Z,8.10
2022-10-22T16:56:57.686Z,24.70
2022-10-22T16:59:25.818Z,12.87
2022-10-22T17:01:54.672Z,7.63
2022-10-22T17:04:23.651Z,15.83
2022-10-22T17:06:52.183Z,10.20
2022-10-22T17:09:23.221Z,12.50
2022-10-22T17:11:51.365Z,8.50
2022-10-22T17:14:19.375Z,5.93
2022-10-22T17:16:48.917Z,8.83
2022-10-22T17:19:17.000Z,10.60
2022-10-22T17:21:44.977Z,10.07
2022-10-22T17:24:13.042Z,5.70
2022-10-22T17:26:43.463Z,5.70
2022-10-22T17:29:11.893Z,5.97
2022-10-22T17:31:41.900Z,6.50
2022-10-22T17:34:12.656Z,7.13
2022-10-22T17:36:41.500Z,4.83
2022-10-22T17:39:10.037Z,3.03
2022-10-22T17:41:38.785Z,2.70
2022-10-22T17:44:10.008Z,4.00
2022-10-22T17:46:38.797Z,5.53
2022-10-22T17:49:09.372Z,26.17
2022-10-22T17:51:38.168Z,150.30
2022-10-22T17:54:09.027Z,71.90
2022-10-22T17:56:40.100Z,92.63
2022-10-22T17:59:10.102Z,477.70
2022-10-22T18:01:43.439Z,396.73
2022-10-22T18:04:12.973Z,74.83
2022-10-22T18:06:41.117Z,11.87
2022-10-22T18:09:17.263Z,8.10
2022-10-22T18:11:46.884Z,6.67
2022-10-22T18:14:16.871Z,7.63
2022-10-22T18:16:45.203Z,3.93
2022-10-22T18:19:16.368Z,4.30
2022-10-22T18:21:44.466Z,5.70
2022-10-22T18:24:12.755Z,3.40
2022-10-22T18:26:40.843Z,10.33
2022-10-22T18:29:08.871Z,7.60
2022-10-22T18:31:38.353Z,6.20
2022-10-22T18:34:06.419Z,4.80
2022-10-22T18:36:34.522Z,5.77
2022-10-22T18:39:03.973Z,5.53
2022-10-22T18:41:33.276Z,2.70
2022-10-22T18:44:02.726Z,2.90
2022-10-22T18:46:31.666Z,4.30
2022-10-22T18:49:01.135Z,2.80
2022-10-22T18:51:31.710Z,2.70
2022-10-22T18:54:11.279Z,2.00
2022-10-22T18:56:46.235Z,2.90
2022-10-22T18:59:20.245Z,4.53
2022-10-22T19:01:48.762Z,2.43
2022-10-22T19:04:18.163Z,8.20
2022-10-22T19:06:46.532Z,8.60
2022-10-22T19:09:16.617Z,7.67
2022-10-22T19:11:45.180Z,7.83
2022-10-22T19:14:14.199Z,4.10
2022-10-22T19:16:42.240Z,2.90
2022-10-22T19:19:10.541Z,6.63
2022-10-22T19:21:39.970Z,2.60
2022-10-22T19:24:08.395Z,9.90
2022-10-22T19:26:36.436Z,2.47
2022-10-22T19:29:05.369Z,4.13
2022-10-22T19:31:34.081Z,2.50
2022-10-22T19:34:02.850Z,3.40
2022-10-22T19:36:32.758Z,4.33
2022-10-22T19:39:02.315Z,3.07
2022-10-22T19:41:32.024Z,7.50
2022-10-22T19:44:01.191Z,6.30
2022-10-22T19:46:30.449Z,11.20
2022-10-22T19:48:58.545Z,12.37
2022-10-22T19:51:29.772Z,5.13
2022-10-22T19:53:59.307Z,5.67
2022-10-22T19:56:29.855Z,8.67
2022-10-22T19:58:57.922Z,8.70
2022-10-22T20:01:26.450Z,14.45
2022-10-22T20:03:55.154Z,7.93
2022-10-22T20:06:23.188Z,8.83
2022-10-22T20:08:55.169Z,8.70
2022-10-22T20:11:26.386Z,8.47
2022-10-22T20:13:56.924Z,5.47
2022-10-22T20:16:28.424Z,6.43
2022-10-22T20:19:00.088Z,5.27
2022-10-22T20:21:28.543Z,15.77
2022-10-22T20:23:58.155Z,13.20
2022-10-22T20:26:28.203Z,10.47
2022-10-22T20:28:59.342Z,10.53
2022-10-22T20:31:29.341Z,6.60
2022-10-22T20:33:58.923Z,8.30
2022-10-22T20:36:28.111Z,8.93
2022-10-22T20:39:00.732Z,6.30
2022-10-22T20:41:28.895Z,6.00
2022-10-22T20:43:58.327Z,6.73
2022-10-22T20:46:29.190Z,8.37
2022-10-22T20:49:00.203Z,6.43
2022-10-22T20:51:28.345Z,8.10
2022-10-22T20:53:56.471Z,5.87
2022-10-22T20:56:25.408Z,6.23
2022-10-22T20:59:04.472Z,11.20
2022-10-22T21:01:35.593Z,9.53
2022-10-22T21:04:03.635Z,3.97
2022-10-22T21:06:31.761Z,7.47
2022-10-22T21:08:59.881Z,5.87
2022-10-22T21:11:27.993Z,6.63
2022-10-22T21:13:56.114Z,5.70
2022-10-22T21:16:24.224Z,3.17
2022-10-22T21:18:53.685Z,9.47
2022-10-22T21:21:21.727Z,4.37
2022-10-22T21:23:50.998Z,3.90
2022-10-22T21:26:19.343Z,5.47
2022-10-22T21:28:47.626Z,6.27
2022-10-22T21:31:21.647Z,4.90
2022-10-22T21:33:50.665Z,3.80
2022-10-22T21:36:22.945Z,2.47
2022-10-22T21:38:51.847Z,5.90
2022-10-22T21:41:21.275Z,2.20
2022-10-22T21:43:49.402Z,3.80
2022-10-22T21:46:18.763Z,3.40
2022-10-22T21:48:47.050Z,6.47
2022-10-22T21:51:17.272Z,6.37
2022-10-22T21:53:47.568Z,5.67
2022-10-22T21:56:17.997Z,3.93
2022-10-22T21:58:46.186Z,4.80
2022-10-22T22:01:15.811Z,7.63
2022-10-22T22:03:44.749Z,2.97
2022-10-22T22:06:13.344Z,2.30
2022-10-22T22:08:42.138Z,4.33
2022-10-22T22:11:13.547Z,2.47
2022-10-22T22:13:41.711Z,7.60
2022-10-22T22:16:11.920Z,2.53
2022-10-22T22:18:41.380Z,6.33
2022-10-22T22:21:11.964Z,1.83
2022-10-22T22:23:41.242Z,2.30
2022-10-22T22:26:11.592Z,1.73
2022-10-22T22:28:39.939Z,3.23
2022-10-22T22:31:14.106Z,3.73
2022-10-22T22:33:42.436Z,4.00
2022-10-22T22:36:10.969Z,2.40
2022-10-22T22:38:39.646Z,3.80
2022-10-22T22:41:07.975Z,4.13
2022-10-22T22:43:37.767Z,2.07
2022-10-22T22:46:07.621Z,2.83
2022-10-22T22:48:36.379Z,4.00
2022-10-22T22:51:04.753Z,4.10
2022-10-22T22:53:35.467Z,2.40
2022-10-22T22:56:07.132Z,5.23
2022-10-22T22:58:36.013Z,2.50
2022-10-22T23:01:14.300Z,3.03
2022-10-22T23:03:43.058Z,2.67
2022-10-22T23:06:11.890Z,3.63
2022-10-22T23:08:40.397Z,5.90
2022-10-22T23:11:11.892Z,3.53
2022-10-22T23:13:40.729Z,1.80
2022-10-22T23:16:10.594Z,2.60
2022-10-22T23:18:40.662Z,2.70
2022-10-22T23:21:19.570Z,5.43
2022-10-22T23:23:50.588Z,1.80
2022-10-22T23:26:20.331Z,2.23
2022-10-22T23:28:48.762Z,2.37
2022-10-22T23:31:18.272Z,1.30
2022-10-22T23:33:48.146Z,3.00
2022-10-22T23:36:16.770Z,1.50
2022-10-22T23:38:44.959Z,8.33
2022-10-22T23:41:13.435Z,3.00
2022-10-22T23:43:41.667Z,3.93
2022-10-22T23:46:12.554Z,4.20
2022-10-22T23:48:41.866Z,4.00
2022-10-22T23:51:13.455Z,2.93
2022-10-22T23:53:42.490Z,2.00
2022-10-22T23:56:12.715Z,3.30
2022-10-22T23:58:41.678Z,4.20
